Portada
METAR-TAF:

METAR-TAF

Aeropuertos :

Bloemfontein, Sudáfrica

latitud: 29-06S, longitud: 026-18E, altitud: 1354 m

Observación

El informe se hizo hace 1 hora y 0 minutos, a las 19:00 UTC
Viento 7 kt del oeste-suroeste
Temperatura 5°C
Humedad 52%
Presión 1021 hPa
Visibilidad 10 km o más

METAR: FABL 261900Z AUTO 25007KT 9999 ///////// 05/M04 Q1021

Hora: 22:00 (20:00 UTC)

Pronóstico

El informe se hizo hace 4 horas y 0 minutos, a las 16:00 UTC
Pronóstico válido del 26 a las 18 UTC al 27 a las 18 UTC
Viento 3 kt con dirección variable
Visibilidad 10 km o más
sin nubes por debajo de 1500 m y sin presencia de cumulonimbus.

TAF: FABL 261600Z 2618/2718 VRB03KT CAVOK TX11/2712Z TNM06/2704Z

Observaciones y pronósticos meteorológicos de más de 4000 aeropuertos (mensajes METAR y TAF).

Los puntos amarillos y rojos representan las estaciones disponibles.

Ponga el ratón en el punto deseado para ver el nombre de la estación.

Haga clic para ver las observaciones y los pronósticos meteorológicos.

Para cambiar el mapa : haga clic en los botones verdes con una cruz de color negro para hacer un zoom, en el botón verde con un guión para alejar o en las flechas verdes para mapas adyacentes.


METAR-TAF: